createdAt,value
2019-05-13T00:03:03.721Z,10.70
2019-05-13T00:08:10.149Z,10.70
2019-05-13T00:13:16.215Z,10.60
2019-05-13T00:18:23.524Z,10.50
2019-05-13T00:23:29.603Z,10.50
2019-05-13T00:28:35.573Z,10.60
2019-05-13T00:33:44.262Z,10.50
2019-05-13T00:38:49.140Z,10.20
2019-05-13T00:43:54.919Z,10.00
2019-05-13T00:49:00.889Z,10.00
2019-05-13T00:54:07.019Z,10.00
2019-05-13T00:59:14.231Z,10.10
2019-05-13T01:04:20.255Z,10.00
2019-05-13T01:09:26.229Z,10.10
2019-05-13T01:14:34.208Z,9.90
2019-05-13T01:19:40.136Z,9.80
2019-05-13T01:24:46.120Z,9.90
2019-05-13T01:29:53.475Z,9.80
2019-05-13T01:34:59.579Z,9.90
2019-05-13T01:40:06.107Z,9.80
2019-05-13T01:45:13.723Z,9.80
2019-05-13T01:50:19.962Z,9.80
2019-05-13T01:55:25.861Z,9.80
2019-05-13T02:00:34.918Z,9.80
2019-05-13T02:05:39.529Z,9.70
2019-05-13T02:10:55.929Z,9.60
2019-05-13T02:16:03.932Z,9.50
2019-05-13T02:21:09.428Z,9.40
2019-05-13T02:26:15.238Z,9.40
2019-05-13T02:31:31.977Z,9.40
2019-05-13T02:36:28.807Z,9.30
2019-05-13T02:41:34.662Z,9.20
2019-05-13T02:46:43.983Z,9.10
2019-05-13T02:51:48.126Z,9.00
2019-05-13T02:56:54.022Z,9.00
2019-05-13T03:02:03.176Z,9.00
2019-05-13T03:07:07.639Z,9.00
2019-05-13T03:12:13.685Z,9.10
2019-05-13T03:17:27.819Z,9.00
2019-05-13T03:22:33.743Z,8.80
2019-05-13T03:27:42.516Z,8.70
2019-05-13T03:32:58.662Z,8.70
2019-05-13T03:37:54.592Z,8.80
2019-05-13T03:43:02.838Z,8.80
2019-05-13T03:48:12.058Z,8.70
2019-05-13T03:53:16.622Z,8.60
2019-05-13T03:58:23.877Z,8.40
2019-05-13T04:03:32.852Z,8.40
2019-05-13T04:08:37.424Z,8.40
2019-05-13T04:13:43.724Z,8.40
2019-05-13T04:18:53.367Z,8.40
2019-05-13T04:23:57.187Z,8.30
2019-05-13T04:29:03.531Z,8.20
2019-05-13T04:34:12.382Z,8.20
2019-05-13T04:39:35.197Z,8.20
2019-05-13T04:44:24.858Z,8.10
2019-05-13T04:49:32.667Z,8.10
2019-05-13T04:54:43.334Z,8.10
2019-05-13T04:59:47.196Z,8.20
2019-05-13T05:05:03.286Z,8.20
2019-05-13T05:10:53.986Z,8.20
2019-05-13T05:16:34.385Z,8.40
2019-05-13T05:21:55.483Z,8.50
2019-05-13T05:27:58.417Z,8.60
2019-05-13T05:33:36.918Z,8.70
2019-05-13T05:39:01.713Z,8.70
2019-05-13T05:44:12.501Z,8.70
2019-05-13T05:49:21.555Z,8.70
2019-05-13T05:54:31.751Z,8.80
2019-05-13T05:59:38.525Z,8.90
2019-05-13T06:04:46.773Z,9.30
2019-05-13T06:09:53.252Z,9.40
2019-05-13T06:15:02.676Z,9.40
2019-05-13T06:20:09.098Z,9.40
2019-05-13T06:25:15.274Z,9.60
2019-05-13T06:30:21.897Z,9.80
2019-05-13T06:35:28.188Z,10.00
2019-05-13T06:40:34.268Z,10.10
2019-05-13T06:45:42.084Z,10.20
2019-05-13T06:50:48.000Z,10.40
2019-05-13T06:55:54.043Z,10.50
2019-05-13T07:01:03.733Z,10.60
2019-05-13T07:06:09.036Z,10.80
2019-05-13T07:11:20.979Z,11.00
2019-05-13T07:16:22.543Z,11.10
2019-05-13T07:21:28.998Z,11.30
2019-05-13T07:26:35.150Z,11.40
2019-05-13T07:31:42.183Z,11.60
2019-05-13T07:36:51.172Z,11.70
2019-05-13T07:41:56.822Z,11.80
2019-05-13T07:47:03.622Z,11.90
2019-05-13T07:52:11.944Z,12.00
2019-05-13T07:57:17.319Z,12.30
2019-05-13T08:02:23.385Z,12.20
2019-05-13T08:07:31.577Z,12.10
2019-05-13T08:12:37.210Z,12.40
2019-05-13T08:17:47.222Z,12.80
2019-05-13T08:22:52.013Z,13.30
2019-05-13T08:27:58.385Z,13.50
2019-05-13T08:33:04.472Z,13.80
2019-05-13T08:38:12.031Z,13.90
2019-05-13T08:43:17.980Z,14.00
2019-05-13T08:48:24.277Z,14.10
2019-05-13T08:53:31.755Z,14.40
2019-05-13T08:58:38.085Z,14.60
2019-05-13T09:03:44.102Z,14.70
2019-05-13T09:08:53.737Z,14.70
2019-05-13T09:13:57.658Z,14.90
2019-05-13T09:19:04.111Z,14.90
2019-05-13T09:24:24.620Z,14.90
2019-05-13T09:29:22.586Z,15.00
2019-05-13T09:34:28.417Z,15.00
2019-05-13T09:39:34.446Z,15.00
2019-05-13T09:44:41.940Z,15.10
2019-05-13T09:49:48.115Z,15.20
2019-05-13T09:54:54.260Z,15.30
2019-05-13T10:00:01.747Z,15.40
2019-05-13T10:05:11.562Z,15.40
2019-05-13T10:10:16.711Z,15.40
2019-05-13T10:15:22.772Z,15.50
2019-05-13T10:20:47.755Z,15.50
2019-05-13T10:25:56.931Z,15.60
2019-05-13T10:31:03.043Z,15.70
2019-05-13T10:36:11.891Z,15.70
2019-05-13T10:41:16.704Z,15.60
2019-05-13T10:46:22.785Z,15.80
2019-05-13T10:51:28.820Z,15.70
2019-05-13T10:56:34.865Z,15.80
2019-05-13T11:01:42.638Z,15.90
2019-05-13T11:06:52.590Z,15.90
2019-05-13T11:11:57.973Z,16.00
2019-05-13T11:17:03.810Z,16.10
2019-05-13T11:22:12.326Z,16.10
2019-05-13T11:27:17.982Z,16.20
2019-05-13T11:32:24.138Z,16.20
2019-05-13T11:37:32.030Z,16.20
2019-05-13T11:42:37.918Z,16.30
2019-05-13T11:47:43.914Z,16.30
2019-05-13T11:52:52.521Z,16.30
2019-05-13T11:58:02.722Z,16.30
2019-05-13T12:03:07.401Z,16.50
2019-05-13T12:08:13.683Z,16.50
2019-05-13T12:13:22.639Z,16.60
2019-05-13T12:18:28.506Z,16.70
2019-05-13T12:23:34.597Z,16.60
2019-05-13T12:28:42.128Z,16.70
2019-05-13T12:33:48.254Z,17.00
2019-05-13T12:38:54.549Z,17.00
2019-05-13T12:44:01.820Z,17.20
2019-05-13T12:49:07.986Z,17.10
2019-05-13T12:54:14.353Z,17.00
2019-05-13T12:59:22.238Z,16.90
2019-05-13T13:04:32.640Z,16.80
2019-05-13T13:09:37.157Z,16.80
2019-05-13T13:14:44.614Z,16.70
2019-05-13T13:19:54.775Z,16.70
2019-05-13T13:24:58.514Z,16.80
2019-05-13T13:30:08.413Z,16.90
2019-05-13T13:35:14.735Z,16.90
2019-05-13T13:40:28.286Z,17.00
2019-05-13T13:45:28.602Z,17.00
2019-05-13T13:50:34.416Z,17.00
2019-05-13T13:55:44.392Z,17.10
2019-05-13T14:01:01.766Z,17.00
2019-05-13T14:05:55.831Z,17.00
2019-05-13T14:11:02.240Z,17.10
2019-05-13T14:16:22.520Z,17.00
2019-05-13T14:21:15.905Z,17.00
2019-05-13T14:26:22.281Z,17.00
2019-05-13T14:31:28.472Z,17.10
2019-05-13T14:36:34.581Z,17.10
2019-05-13T14:41:42.553Z,17.00
2019-05-13T14:46:48.341Z,17.10
2019-05-13T14:51:56.433Z,17.10
2019-05-13T14:57:02.529Z,17.10
2019-05-13T15:02:08.618Z,17.00
2019-05-13T15:07:14.665Z,17.00
2019-05-13T15:12:21.595Z,16.90
2019-05-13T15:17:27.771Z,16.90
2019-05-13T15:22:33.770Z,17.00
2019-05-13T15:27:42.023Z,16.90
2019-05-13T15:32:47.518Z,16.90
2019-05-13T15:37:53.534Z,16.90
2019-05-13T15:42:59.339Z,16.80
2019-05-13T15:48:05.676Z,16.80
2019-05-13T15:53:12.737Z,16.70
2019-05-13T15:58:19.141Z,16.70
2019-05-13T16:03:25.171Z,16.70
2019-05-13T16:08:32.060Z,16.60
2019-05-13T16:13:38.206Z,16.50
2019-05-13T16:18:43.933Z,16.40
2019-05-13T16:23:51.955Z,16.40
2019-05-13T16:28:57.957Z,16.30
2019-05-13T16:34:04.051Z,16.30
2019-05-13T16:39:12.295Z,16.30
2019-05-13T16:44:17.828Z,16.30
2019-05-13T16:49:23.926Z,16.20
2019-05-13T16:54:32.568Z,16.20
2019-05-13T16:59:37.502Z,16.20
2019-05-13T17:04:43.626Z,16.20
2019-05-13T17:09:49.464Z,16.20
2019-05-13T17:14:55.439Z,16.00
2019-05-13T17:20:02.418Z,15.90
2019-05-13T17:25:08.962Z,15.90
2019-05-13T17:30:15.397Z,15.80
2019-05-13T17:35:21.978Z,15.80
2019-05-13T17:40:27.993Z,15.70
2019-05-13T17:45:34.137Z,15.60
2019-05-13T17:50:41.399Z,15.50
2019-05-13T17:55:47.286Z,15.40
2019-05-13T18:00:53.424Z,15.30
2019-05-13T18:05:59.483Z,15.30
2019-05-13T18:11:05.477Z,15.20
2019-05-13T18:16:12.544Z,15.20
2019-05-13T18:21:18.852Z,15.20
2019-05-13T18:26:24.862Z,15.10
2019-05-13T18:31:30.838Z,15.00
2019-05-13T18:36:37.000Z,14.90
2019-05-13T18:41:43.014Z,14.80
2019-05-13T18:46:48.770Z,14.70
2019-05-13T18:51:55.018Z,14.60
2019-05-13T18:57:01.622Z,14.50
2019-05-13T19:02:07.952Z,14.40
2019-05-13T19:07:13.701Z,14.40
2019-05-13T19:12:21.833Z,14.30
2019-05-13T19:17:27.220Z,14.30
2019-05-13T19:22:32.978Z,14.20
2019-05-13T19:27:41.365Z,14.10
2019-05-13T19:32:47.396Z,14.10
2019-05-13T19:37:53.541Z,14.00
2019-05-13T19:43:01.494Z,14.00
2019-05-13T19:48:07.243Z,13.90
2019-05-13T19:53:12.933Z,13.80
2019-05-13T19:58:18.675Z,13.80
2019-05-13T20:03:24.666Z,13.70
2019-05-13T20:08:32.097Z,13.70
2019-05-13T20:13:41.601Z,13.70
2019-05-13T20:18:47.120Z,13.60
2019-05-13T20:23:53.082Z,13.60
2019-05-13T20:28:58.907Z,13.50
2019-05-13T20:34:05.114Z,13.40
2019-05-13T20:39:11.587Z,13.20
2019-05-13T20:44:17.733Z,13.20
2019-05-13T20:49:23.928Z,13.10
2019-05-13T20:54:31.367Z,13.10
2019-05-13T20:59:37.671Z,13.10
2019-05-13T21:04:43.926Z,13.00
2019-05-13T21:09:51.221Z,13.00
2019-05-13T21:14:57.543Z,12.90
2019-05-13T21:20:18.235Z,12.90
2019-05-13T21:25:11.898Z,12.90
2019-05-13T21:30:18.094Z,12.90
2019-05-13T21:35:23.864Z,12.90
2019-05-13T21:40:31.992Z,13.00
2019-05-13T21:45:37.634Z,12.90
2019-05-13T21:50:43.630Z,12.80
2019-05-13T21:55:51.872Z,12.80
2019-05-13T22:00:58.738Z,12.90
2019-05-13T22:06:04.693Z,12.70
2019-05-13T22:11:12.025Z,12.70
2019-05-13T22:16:18.124Z,12.70
2019-05-13T22:21:24.091Z,12.60
2019-05-13T22:26:31.193Z,12.60
2019-05-13T22:31:37.254Z,12.50
2019-05-13T22:36:43.321Z,12.40
2019-05-13T22:41:49.400Z,12.30
2019-05-13T22:46:55.396Z,12.30
2019-05-13T22:52:01.470Z,12.20
2019-05-13T22:57:07.631Z,12.20
2019-05-13T23:02:13.793Z,12.10
2019-05-13T23:07:22.156Z,12.10
2019-05-13T23:12:27.327Z,12.10
2019-05-13T23:17:33.283Z,11.90
2019-05-13T23:22:41.304Z,11.90
2019-05-13T23:27:46.777Z,11.80
2019-05-13T23:32:52.832Z,11.90
2019-05-13T23:37:58.903Z,11.90
2019-05-13T23:43:04.774Z,11.90
2019-05-13T23:48:10.635Z,11.90
2019-05-13T23:53:16.544Z,11.80
2019-05-13T23:58:22.597Z,11.80
